sensor_id;sensor_type;location;lat;lon;timestamp;P1;durP1;ratioP1;P2;durP2;ratioP2
52692;SDS011;68218;51.012;-1.648;2024-02-26T00:01:55;14.52;;;8.40;;
52692;SDS011;68218;51.012;-1.648;2024-02-26T00:04:21;14.07;;;9.05;;
52692;SDS011;68218;51.012;-1.648;2024-02-26T00:06:47;14.18;;;8.50;;
52692;SDS011;68218;51.012;-1.648;2024-02-26T00:09:15;12.73;;;7.75;;
52692;SDS011;68218;51.012;-1.648;2024-02-26T00:11:41;13.25;;;7.97;;
52692;SDS011;68218;51.012;-1.648;2024-02-26T00:14:06;15.98;;;8.82;;
52692;SDS011;68218;51.012;-1.648;2024-02-26T00:16:31;13.75;;;7.97;;
52692;SDS011;68218;51.012;-1.648;2024-02-26T00:18:57;14.23;;;7.80;;
52692;SDS011;68218;51.012;-1.648;2024-02-26T00:21:22;12.65;;;7.43;;
52692;SDS011;68218;51.012;-1.648;2024-02-26T00:23:49;12.38;;;7.95;;
52692;SDS011;68218;51.012;-1.648;2024-02-26T00:26:15;11.18;;;8.00;;
52692;SDS011;68218;51.012;-1.648;2024-02-26T00:28:40;15.70;;;8.18;;
52692;SDS011;68218;51.012;-1.648;2024-02-26T00:31:05;14.68;;;8.38;;
52692;SDS011;68218;51.012;-1.648;2024-02-26T00:33:31;12.30;;;7.53;;
52692;SDS011;68218;51.012;-1.648;2024-02-26T00:35:56;12.68;;;7.70;;
52692;SDS011;68218;51.012;-1.648;2024-02-26T00:38:21;15.75;;;7.97;;
52692;SDS011;68218;51.012;-1.648;2024-02-26T00:40:47;13.40;;;7.57;;
52692;SDS011;68218;51.012;-1.648;2024-02-26T00:43:12;12.82;;;8.10;;
52692;SDS011;68218;51.012;-1.648;2024-02-26T00:45:37;13.10;;;7.18;;
52692;SDS011;68218;51.012;-1.648;2024-02-26T00:48:03;12.27;;;8.05;;
52692;SDS011;68218;51.012;-1.648;2024-02-26T00:50:32;14.50;;;8.23;;
52692;SDS011;68218;51.012;-1.648;2024-02-26T00:52:58;13.93;;;7.68;;
52692;SDS011;68218;51.012;-1.648;2024-02-26T00:55:24;13.48;;;7.47;;
52692;SDS011;68218;51.012;-1.648;2024-02-26T00:57:49;15.32;;;7.65;;
52692;SDS011;68218;51.012;-1.648;2024-02-26T01:00:15;12.57;;;7.32;;
52692;SDS011;68218;51.012;-1.648;2024-02-26T01:02:40;13.90;;;7.25;;
52692;SDS011;68218;51.012;-1.648;2024-02-26T01:05:11;11.05;;;7.18;;
52692;SDS011;68218;51.012;-1.648;2024-02-26T01:07:37;13.82;;;7.80;;
52692;SDS011;68218;51.012;-1.648;2024-02-26T01:10:03;13.57;;;7.57;;
52692;SDS011;68218;51.012;-1.648;2024-02-26T01:12:28;17.38;;;7.90;;
52692;SDS011;68218;51.012;-1.648;2024-02-26T01:14:54;13.07;;;7.28;;
52692;SDS011;68218;51.012;-1.648;2024-02-26T01:17:20;14.63;;;7.28;;
52692;SDS011;68218;51.012;-1.648;2024-02-26T01:19:45;12.65;;;7.53;;
52692;SDS011;68218;51.012;-1.648;2024-02-26T01:22:11;15.48;;;8.10;;
52692;SDS011;68218;51.012;-1.648;2024-02-26T01:24:36;14.35;;;7.70;;
52692;SDS011;68218;51.012;-1.648;2024-02-26T01:27:01;15.07;;;8.20;;
52692;SDS011;68218;51.012;-1.648;2024-02-26T01:29:27;15.25;;;7.65;;
52692;SDS011;68218;51.012;-1.648;2024-02-26T01:31:52;15.05;;;7.95;;
52692;SDS011;68218;51.012;-1.648;2024-02-26T01:34:18;14.95;;;7.47;;
52692;SDS011;68218;51.012;-1.648;2024-02-26T01:36:43;14.18;;;7.88;;
52692;SDS011;68218;51.012;-1.648;2024-02-26T01:39:09;14.65;;;8.07;;
52692;SDS011;68218;51.012;-1.648;2024-02-26T01:41:37;14.75;;;8.07;;
52692;SDS011;68218;51.012;-1.648;2024-02-26T01:44:03;13.38;;;8.20;;
52692;SDS011;68218;51.012;-1.648;2024-02-26T01:46:29;13.70;;;8.43;;
52692;SDS011;68218;51.012;-1.648;2024-02-26T01:48:56;16.60;;;8.27;;
52692;SDS011;68218;51.012;-1.648;2024-02-26T01:51:22;16.45;;;8.65;;
52692;SDS011;68218;51.012;-1.648;2024-02-26T01:53:47;15.38;;;8.98;;
52692;SDS011;68218;51.012;-1.648;2024-02-26T01:56:13;14.45;;;8.30;;
52692;SDS011;68218;51.012;-1.648;2024-02-26T01:58:42;15.55;;;9.05;;
52692;SDS011;68218;51.012;-1.648;2024-02-26T02:01:08;15.38;;;8.75;;
52692;SDS011;68218;51.012;-1.648;2024-02-26T02:03:34;14.02;;;7.70;;
52692;SDS011;68218;51.012;-1.648;2024-02-26T02:06:01;13.57;;;7.65;;
52692;SDS011;68218;51.012;-1.648;2024-02-26T02:08:27;12.68;;;7.85;;
52692;SDS011;68218;51.012;-1.648;2024-02-26T02:10:53;13.45;;;7.53;;
52692;SDS011;68218;51.012;-1.648;2024-02-26T02:13:18;16.20;;;7.63;;
52692;SDS011;68218;51.012;-1.648;2024-02-26T02:15:43;13.55;;;7.53;;
52692;SDS011;68218;51.012;-1.648;2024-02-26T02:18:09;12.63;;;6.90;;
52692;SDS011;68218;51.012;-1.648;2024-02-26T02:20:34;12.80;;;7.05;;
52692;SDS011;68218;51.012;-1.648;2024-02-26T02:23:00;14.40;;;6.97;;
52692;SDS011;68218;51.012;-1.648;2024-02-26T02:25:26;12.80;;;6.75;;
52692;SDS011;68218;51.012;-1.648;2024-02-26T02:27:52;11.98;;;6.30;;
52692;SDS011;68218;51.012;-1.648;2024-02-26T02:30:19;13.95;;;6.38;;
52692;SDS011;68218;51.012;-1.648;2024-02-26T02:32:46;11.10;;;6.00;;
52692;SDS011;68218;51.012;-1.648;2024-02-26T02:35:12;13.57;;;6.50;;
52692;SDS011;68218;51.012;-1.648;2024-02-26T02:37:37;10.88;;;6.07;;
52692;SDS011;68218;51.012;-1.648;2024-02-26T02:40:03;12.60;;;5.95;;
52692;SDS011;68218;51.012;-1.648;2024-02-26T02:42:30;10.48;;;5.53;;
52692;SDS011;68218;51.012;-1.648;2024-02-26T02:44:55;13.45;;;6.25;;
52692;SDS011;68218;51.012;-1.648;2024-02-26T02:47:20;13.57;;;5.90;;
52692;SDS011;68218;51.012;-1.648;2024-02-26T02:49:46;12.90;;;6.13;;
52692;SDS011;68218;51.012;-1.648;2024-02-26T02:52:11;11.50;;;5.93;;
52692;SDS011;68218;51.012;-1.648;2024-02-26T02:54:37;11.80;;;6.03;;
52692;SDS011;68218;51.012;-1.648;2024-02-26T02:57:05;8.93;;;5.38;;
52692;SDS011;68218;51.012;-1.648;2024-02-26T02:59:30;11.80;;;5.93;;
52692;SDS011;68218;51.012;-1.648;2024-02-26T03:01:56;8.95;;;5.05;;
52692;SDS011;68218;51.012;-1.648;2024-02-26T03:04:21;11.20;;;5.95;;
52692;SDS011;68218;51.012;-1.648;2024-02-26T03:06:47;10.60;;;5.38;;
52692;SDS011;68218;51.012;-1.648;2024-02-26T03:09:12;10.95;;;5.82;;
52692;SDS011;68218;51.012;-1.648;2024-02-26T03:11:37;9.88;;;5.35;;
52692;SDS011;68218;51.012;-1.648;2024-02-26T03:14:04;11.82;;;5.30;;
52692;SDS011;68218;51.012;-1.648;2024-02-26T03:16:30;10.52;;;4.80;;
52692;SDS011;68218;51.012;-1.648;2024-02-26T03:18:55;10.60;;;4.60;;
52692;SDS011;68218;51.012;-1.648;2024-02-26T03:21:21;9.07;;;4.88;;
52692;SDS011;68218;51.012;-1.648;2024-02-26T03:23:46;10.25;;;4.93;;
52692;SDS011;68218;51.012;-1.648;2024-02-26T03:26:12;8.25;;;4.70;;
52692;SDS011;68218;51.012;-1.648;2024-02-26T03:28:39;8.57;;;4.55;;
52692;SDS011;68218;51.012;-1.648;2024-02-26T03:31:05;9.18;;;4.50;;
52692;SDS011;68218;51.012;-1.648;2024-02-26T03:33:30;8.80;;;3.83;;
52692;SDS011;68218;51.012;-1.648;2024-02-26T03:35:56;7.68;;;4.15;;
52692;SDS011;68218;51.012;-1.648;2024-02-26T03:38:21;8.82;;;4.22;;
52692;SDS011;68218;51.012;-1.648;2024-02-26T03:40:47;8.30;;;4.35;;
52692;SDS011;68218;51.012;-1.648;2024-02-26T03:43:12;7.70;;;4.13;;
52692;SDS011;68218;51.012;-1.648;2024-02-26T03:45:38;5.65;;;3.70;;
52692;SDS011;68218;51.012;-1.648;2024-02-26T03:48:03;8.40;;;3.83;;
52692;SDS011;68218;51.012;-1.648;2024-02-26T03:50:29;8.45;;;3.60;;
52692;SDS011;68218;51.012;-1.648;2024-02-26T03:52:54;8.55;;;3.65;;
52692;SDS011;68218;51.012;-1.648;2024-02-26T03:55:20;8.80;;;3.30;;
52692;SDS011;68218;51.012;-1.648;2024-02-26T03:57:49;7.35;;;3.30;;
52692;SDS011;68218;51.012;-1.648;2024-02-26T04:00:19;7.07;;;3.45;;
52692;SDS011;68218;51.012;-1.648;2024-02-26T04:02:46;9.13;;;4.03;;
52692;SDS011;68218;51.012;-1.648;2024-02-26T04:05:12;10.70;;;3.20;;
52692;SDS011;68218;51.012;-1.648;2024-02-26T04:07:38;6.10;;;3.25;;
52692;SDS011;68218;51.012;-1.648;2024-02-26T04:10:07;6.00;;;3.30;;
52692;SDS011;68218;51.012;-1.648;2024-02-26T04:12:34;5.25;;;2.55;;
52692;SDS011;68218;51.012;-1.648;2024-02-26T04:14:59;5.38;;;3.00;;
52692;SDS011;68218;51.012;-1.648;2024-02-26T04:17:25;6.00;;;2.80;;
52692;SDS011;68218;51.012;-1.648;2024-02-26T04:19:50;7.80;;;3.28;;
52692;SDS011;68218;51.012;-1.648;2024-02-26T04:22:16;7.75;;;2.92;;
52692;SDS011;68218;51.012;-1.648;2024-02-26T04:24:41;6.15;;;2.88;;
52692;SDS011;68218;51.012;-1.648;2024-02-26T04:27:06;5.63;;;2.83;;
52692;SDS011;68218;51.012;-1.648;2024-02-26T04:29:32;9.02;;;2.90;;
52692;SDS011;68218;51.012;-1.648;2024-02-26T04:31:57;9.80;;;3.13;;
52692;SDS011;68218;51.012;-1.648;2024-02-26T04:34:22;5.63;;;2.72;;
52692;SDS011;68218;51.012;-1.648;2024-02-26T04:36:48;8.52;;;3.08;;
52692;SDS011;68218;51.012;-1.648;2024-02-26T04:39:13;7.68;;;2.40;;
52692;SDS011;68218;51.012;-1.648;2024-02-26T04:41:39;4.05;;;2.53;;
52692;SDS011;68218;51.012;-1.648;2024-02-26T04:44:05;5.78;;;2.60;;
52692;SDS011;68218;51.012;-1.648;2024-02-26T04:46:30;7.15;;;2.92;;
52692;SDS011;68218;51.012;-1.648;2024-02-26T04:48:56;4.00;;;2.47;;
52692;SDS011;68218;51.012;-1.648;2024-02-26T04:51:21;8.48;;;3.80;;
52692;SDS011;68218;51.012;-1.648;2024-02-26T04:53:46;5.28;;;3.13;;
52692;SDS011;68218;51.012;-1.648;2024-02-26T04:56:12;6.80;;;3.10;;
52692;SDS011;68218;51.012;-1.648;2024-02-26T04:58:37;7.85;;;4.03;;
52692;SDS011;68218;51.012;-1.648;2024-02-26T05:01:03;7.82;;;3.60;;
52692;SDS011;68218;51.012;-1.648;2024-02-26T05:03:29;5.10;;;3.50;;
52692;SDS011;68218;51.012;-1.648;2024-02-26T05:05:54;10.60;;;4.13;;
52692;SDS011;68218;51.012;-1.648;2024-02-26T05:08:20;8.63;;;3.28;;
52692;SDS011;68218;51.012;-1.648;2024-02-26T05:10:45;8.40;;;3.60;;
52692;SDS011;68218;51.012;-1.648;2024-02-26T05:13:11;12.15;;;3.10;;
52692;SDS011;68218;51.012;-1.648;2024-02-26T05:15:36;9.00;;;3.55;;
52692;SDS011;68218;51.012;-1.648;2024-02-26T05:18:02;9.30;;;3.20;;
52692;SDS011;68218;51.012;-1.648;2024-02-26T05:20:27;9.25;;;3.38;;
52692;SDS011;68218;51.012;-1.648;2024-02-26T05:22:53;8.27;;;3.00;;
52692;SDS011;68218;51.012;-1.648;2024-02-26T05:25:19;5.03;;;2.55;;
52692;SDS011;68218;51.012;-1.648;2024-02-26T05:27:45;4.65;;;2.20;;
52692;SDS011;68218;51.012;-1.648;2024-02-26T05:30:10;8.38;;;2.85;;
52692;SDS011;68218;51.012;-1.648;2024-02-26T05:32:36;8.15;;;2.47;;
52692;SDS011;68218;51.012;-1.648;2024-02-26T05:35:02;7.07;;;2.47;;
52692;SDS011;68218;51.012;-1.648;2024-02-26T05:37:28;5.78;;;2.70;;
52692;SDS011;68218;51.012;-1.648;2024-02-26T05:39:54;7.72;;;2.15;;
52692;SDS011;68218;51.012;-1.648;2024-02-26T05:42:19;4.43;;;2.28;;
52692;SDS011;68218;51.012;-1.648;2024-02-26T05:44:45;5.22;;;2.58;;
52692;SDS011;68218;51.012;-1.648;2024-02-26T05:47:10;6.45;;;2.13;;
52692;SDS011;68218;51.012;-1.648;2024-02-26T05:49:36;7.00;;;2.20;;
52692;SDS011;68218;51.012;-1.648;2024-02-26T05:52:01;6.97;;;2.25;;
52692;SDS011;68218;51.012;-1.648;2024-02-26T05:54:27;5.80;;;2.20;;
52692;SDS011;68218;51.012;-1.648;2024-02-26T05:56:52;5.32;;;2.08;;
52692;SDS011;68218;51.012;-1.648;2024-02-26T05:59:18;5.70;;;2.08;;
52692;SDS011;68218;51.012;-1.648;2024-02-26T06:01:43;3.92;;;1.70;;
52692;SDS011;68218;51.012;-1.648;2024-02-26T06:04:09;4.72;;;1.67;;
52692;SDS011;68218;51.012;-1.648;2024-02-26T06:06:34;4.57;;;1.77;;
52692;SDS011;68218;51.012;-1.648;2024-02-26T06:08:59;3.88;;;1.77;;
52692;SDS011;68218;51.012;-1.648;2024-02-26T06:11:26;5.57;;;1.95;;
52692;SDS011;68218;51.012;-1.648;2024-02-26T06:13:52;6.22;;;1.80;;
52692;SDS011;68218;51.012;-1.648;2024-02-26T06:16:17;5.13;;;1.95;;
52692;SDS011;68218;51.012;-1.648;2024-02-26T06:18:42;5.40;;;1.80;;
52692;SDS011;68218;51.012;-1.648;2024-02-26T06:21:09;8.68;;;1.85;;
52692;SDS011;68218;51.012;-1.648;2024-02-26T06:23:35;5.30;;;1.48;;
52692;SDS011;68218;51.012;-1.648;2024-02-26T06:26:01;4.13;;;1.55;;
52692;SDS011;68218;51.012;-1.648;2024-02-26T06:28:26;5.28;;;2.00;;
52692;SDS011;68218;51.012;-1.648;2024-02-26T06:30:52;6.18;;;1.80;;
52692;SDS011;68218;51.012;-1.648;2024-02-26T06:33:18;6.25;;;1.60;;
52692;SDS011;68218;51.012;-1.648;2024-02-26T06:35:43;8.07;;;2.22;;
52692;SDS011;68218;51.012;-1.648;2024-02-26T06:38:09;5.28;;;1.58;;
52692;SDS011;68218;51.012;-1.648;2024-02-26T06:40:36;5.53;;;1.70;;
52692;SDS011;68218;51.012;-1.648;2024-02-26T06:43:01;5.72;;;2.35;;
52692;SDS011;68218;51.012;-1.648;2024-02-26T06:45:27;6.38;;;1.90;;
52692;SDS011;68218;51.012;-1.648;2024-02-26T06:47:52;3.90;;;1.80;;
52692;SDS011;68218;51.012;-1.648;2024-02-26T06:50:17;5.82;;;1.50;;
52692;SDS011;68218;51.012;-1.648;2024-02-26T06:52:44;6.70;;;1.77;;
52692;SDS011;68218;51.012;-1.648;2024-02-26T06:55:09;6.88;;;1.80;;
52692;SDS011;68218;51.012;-1.648;2024-02-26T06:57:35;6.00;;;2.00;;
52692;SDS011;68218;51.012;-1.648;2024-02-26T07:00:00;5.20;;;2.03;;
52692;SDS011;68218;51.012;-1.648;2024-02-26T07:02:25;7.03;;;1.98;;
52692;SDS011;68218;51.012;-1.648;2024-02-26T07:04:51;9.63;;;2.00;;
52692;SDS011;68218;51.012;-1.648;2024-02-26T07:07:16;7.13;;;2.00;;
52692;SDS011;68218;51.012;-1.648;2024-02-26T07:09:43;3.90;;;1.73;;
52692;SDS011;68218;51.012;-1.648;2024-02-26T07:12:09;3.35;;;1.65;;
52692;SDS011;68218;51.012;-1.648;2024-02-26T07:14:34;4.13;;;1.40;;
52692;SDS011;68218;51.012;-1.648;2024-02-26T07:17:00;3.97;;;1.55;;
52692;SDS011;68218;51.012;-1.648;2024-02-26T07:19:25;5.40;;;2.00;;
52692;SDS011;68218;51.012;-1.648;2024-02-26T07:21:50;4.78;;;1.50;;
52692;SDS011;68218;51.012;-1.648;2024-02-26T07:24:16;5.63;;;2.03;;
52692;SDS011;68218;51.012;-1.648;2024-02-26T07:26:41;5.95;;;2.25;;
52692;SDS011;68218;51.012;-1.648;2024-02-26T07:29:06;5.15;;;1.63;;
52692;SDS011;68218;51.012;-1.648;2024-02-26T07:31:32;4.40;;;1.70;;
52692;SDS011;68218;51.012;-1.648;2024-02-26T07:33:57;3.47;;;1.73;;
52692;SDS011;68218;51.012;-1.648;2024-02-26T07:36:22;3.60;;;1.83;;
52692;SDS011;68218;51.012;-1.648;2024-02-26T07:38:48;3.40;;;1.58;;
52692;SDS011;68218;51.012;-1.648;2024-02-26T07:41:13;6.28;;;1.60;;
52692;SDS011;68218;51.012;-1.648;2024-02-26T07:43:38;6.13;;;1.67;;
52692;SDS011;68218;51.012;-1.648;2024-02-26T07:46:04;5.93;;;1.73;;
52692;SDS011;68218;51.012;-1.648;2024-02-26T07:48:29;5.65;;;1.67;;
52692;SDS011;68218;51.012;-1.648;2024-02-26T07:50:55;3.75;;;1.65;;
52692;SDS011;68218;51.012;-1.648;2024-02-26T07:53:20;4.18;;;1.90;;
52692;SDS011;68218;51.012;-1.648;2024-02-26T07:55:45;4.57;;;1.83;;
52692;SDS011;68218;51.012;-1.648;2024-02-26T07:58:10;5.47;;;2.00;;
52692;SDS011;68218;51.012;-1.648;2024-02-26T08:00:36;7.00;;;1.63;;
52692;SDS011;68218;51.012;-1.648;2024-02-26T08:03:01;3.85;;;1.88;;
52692;SDS011;68218;51.012;-1.648;2024-02-26T08:05:27;4.55;;;1.50;;
52692;SDS011;68218;51.012;-1.648;2024-02-26T08:07:52;4.55;;;1.85;;
52692;SDS011;68218;51.012;-1.648;2024-02-26T08:10:17;5.15;;;1.63;;
52692;SDS011;68218;51.012;-1.648;2024-02-26T08:12:43;6.30;;;1.23;;
52692;SDS011;68218;51.012;-1.648;2024-02-26T08:15:10;4.50;;;1.75;;
52692;SDS011;68218;51.012;-1.648;2024-02-26T08:17:36;4.70;;;1.98;;
52692;SDS011;68218;51.012;-1.648;2024-02-26T08:20:01;5.25;;;1.55;;
52692;SDS011;68218;51.012;-1.648;2024-02-26T08:22:27;4.25;;;1.40;;
52692;SDS011;68218;51.012;-1.648;2024-02-26T08:24:52;5.65;;;2.25;;
52692;SDS011;68218;51.012;-1.648;2024-02-26T08:27:18;4.43;;;1.45;;
52692;SDS011;68218;51.012;-1.648;2024-02-26T08:29:43;3.88;;;1.40;;
52692;SDS011;68218;51.012;-1.648;2024-02-26T08:32:08;3.60;;;1.38;;
52692;SDS011;68218;51.012;-1.648;2024-02-26T08:34:34;5.25;;;1.23;;
52692;SDS011;68218;51.012;-1.648;2024-02-26T08:36:59;6.30;;;1.60;;
52692;SDS011;68218;51.012;-1.648;2024-02-26T08:39:24;3.95;;;1.40;;
52692;SDS011;68218;51.012;-1.648;2024-02-26T08:41:50;4.13;;;1.48;;
52692;SDS011;68218;51.012;-1.648;2024-02-26T08:44:16;3.40;;;1.30;;
52692;SDS011;68218;51.012;-1.648;2024-02-26T08:46:41;3.40;;;1.13;;
52692;SDS011;68218;51.012;-1.648;2024-02-26T08:49:07;3.95;;;0.90;;
52692;SDS011;68218;51.012;-1.648;2024-02-26T08:51:32;3.10;;;0.90;;
52692;SDS011;68218;51.012;-1.648;2024-02-26T08:53:57;3.65;;;1.02;;
52692;SDS011;68218;51.012;-1.648;2024-02-26T08:56:23;2.53;;;1.10;;
52692;SDS011;68218;51.012;-1.648;2024-02-26T08:58:48;1.90;;;0.80;;
52692;SDS011;68218;51.012;-1.648;2024-02-26T09:01:15;2.95;;;0.90;;
52692;SDS011;68218;51.012;-1.648;2024-02-26T09:03:41;2.88;;;0.70;;
52692;SDS011;68218;51.012;-1.648;2024-02-26T09:06:06;1.67;;;0.90;;
52692;SDS011;68218;51.012;-1.648;2024-02-26T09:08:32;3.78;;;1.00;;
52692;SDS011;68218;51.012;-1.648;2024-02-26T09:10:58;3.78;;;0.80;;
52692;SDS011;68218;51.012;-1.648;2024-02-26T09:13:23;2.95;;;0.90;;
52692;SDS011;68218;51.012;-1.648;2024-02-26T09:15:49;4.38;;;0.95;;
52692;SDS011;68218;51.012;-1.648;2024-02-26T09:18:14;6.35;;;0.93;;
52692;SDS011;68218;51.012;-1.648;2024-02-26T09:20:40;3.80;;;0.80;;
52692;SDS011;68218;51.012;-1.648;2024-02-26T09:23:06;7.43;;;1.08;;
52692;SDS011;68218;51.012;-1.648;2024-02-26T09:25:31;4.82;;;1.23;;
52692;SDS011;68218;51.012;-1.648;2024-02-26T09:27:58;3.58;;;1.08;;
52692;SDS011;68218;51.012;-1.648;2024-02-26T09:30:24;5.10;;;1.30;;
52692;SDS011;68218;51.012;-1.648;2024-02-26T09:32:49;5.95;;;1.80;;
52692;SDS011;68218;51.012;-1.648;2024-02-26T09:35:14;5.40;;;1.40;;
52692;SDS011;68218;51.012;-1.648;2024-02-26T09:37:40;4.88;;;1.52;;
52692;SDS011;68218;51.012;-1.648;2024-02-26T09:40:05;3.58;;;1.20;;
52692;SDS011;68218;51.012;-1.648;2024-02-26T09:42:32;4.63;;;1.17;;
52692;SDS011;68218;51.012;-1.648;2024-02-26T09:44:59;6.40;;;1.70;;
52692;SDS011;68218;51.012;-1.648;2024-02-26T09:47:28;3.58;;;1.60;;
52692;SDS011;68218;51.012;-1.648;2024-02-26T09:49:56;5.28;;;1.83;;
52692;SDS011;68218;51.012;-1.648;2024-02-26T09:52:23;4.22;;;1.40;;
52692;SDS011;68218;51.012;-1.648;2024-02-26T09:54:50;5.07;;;1.30;;
52692;SDS011;68218;51.012;-1.648;2024-02-26T09:57:16;3.10;;;1.10;;
52692;SDS011;68218;51.012;-1.648;2024-02-26T09:59:43;4.38;;;1.00;;
52692;SDS011;68218;51.012;-1.648;2024-02-26T10:02:10;3.20;;;1.33;;
52692;SDS011;68218;51.012;-1.648;2024-02-26T10:04:37;4.85;;;1.40;;
52692;SDS011;68218;51.012;-1.648;2024-02-26T10:07:05;4.50;;;1.40;;
52692;SDS011;68218;51.012;-1.648;2024-02-26T10:09:35;3.72;;;0.98;;
52692;SDS011;68218;51.012;-1.648;2024-02-26T10:12:01;3.22;;;1.20;;
52692;SDS011;68218;51.012;-1.648;2024-02-26T10:14:27;4.25;;;1.20;;
52692;SDS011;68218;51.012;-1.648;2024-02-26T10:16:52;3.15;;;1.17;;
52692;SDS011;68218;51.012;-1.648;2024-02-26T10:19:27;3.63;;;1.05;;
52692;SDS011;68218;51.012;-1.648;2024-02-26T10:21:57;6.30;;;1.13;;
52692;SDS011;68218;51.012;-1.648;2024-02-26T10:24:26;2.90;;;0.77;;
52692;SDS011;68218;51.012;-1.648;2024-02-26T10:26:52;4.53;;;1.15;;
52692;SDS011;68218;51.012;-1.648;2024-02-26T10:29:19;5.68;;;1.10;;
52692;SDS011;68218;51.012;-1.648;2024-02-26T10:31:46;4.32;;;1.35;;
52692;SDS011;68218;51.012;-1.648;2024-02-26T10:34:11;3.47;;;1.02;;
52692;SDS011;68218;51.012;-1.648;2024-02-26T10:36:37;4.07;;;1.73;;
52692;SDS011;68218;51.012;-1.648;2024-02-26T10:39:05;4.72;;;1.20;;
52692;SDS011;68218;51.012;-1.648;2024-02-26T10:41:32;6.20;;;1.50;;
52692;SDS011;68218;51.012;-1.648;2024-02-26T10:43:58;4.50;;;1.70;;
52692;SDS011;68218;51.012;-1.648;2024-02-26T10:46:23;6.25;;;1.67;;
52692;SDS011;68218;51.012;-1.648;2024-02-26T10:48:51;3.83;;;1.42;;
52692;SDS011;68218;51.012;-1.648;2024-02-26T10:51:20;5.28;;;1.55;;
52692;SDS011;68218;51.012;-1.648;2024-02-26T10:53:56;5.18;;;1.73;;
52692;SDS011;68218;51.012;-1.648;2024-02-26T10:56:29;5.00;;;1.10;;
52692;SDS011;68218;51.012;-1.648;2024-02-26T10:58:58;5.78;;;1.52;;
52692;SDS011;68218;51.012;-1.648;2024-02-26T11:01:24;3.20;;;1.27;;
52692;SDS011;68218;51.012;-1.648;2024-02-26T11:03:52;3.92;;;1.30;;
52692;SDS011;68218;51.012;-1.648;2024-02-26T11:06:18;5.07;;;1.20;;
52692;SDS011;68218;51.012;-1.648;2024-02-26T11:08:49;5.60;;;1.67;;
52692;SDS011;68218;51.012;-1.648;2024-02-26T11:11:15;3.08;;;0.90;;
52692;SDS011;68218;51.012;-1.648;2024-02-26T11:13:45;5.53;;;1.20;;
52692;SDS011;68218;51.012;-1.648;2024-02-26T11:16:18;3.75;;;1.30;;
52692;SDS011;68218;51.012;-1.648;2024-02-26T11:18:46;3.92;;;1.20;;
52692;SDS011;68218;51.012;-1.648;2024-02-26T11:21:15;3.08;;;0.90;;
52692;SDS011;68218;51.012;-1.648;2024-02-26T11:23:43;3.17;;;1.10;;
52692;SDS011;68218;51.012;-1.648;2024-02-26T11:26:10;2.88;;;0.80;;
52692;SDS011;68218;51.012;-1.648;2024-02-26T11:28:38;3.60;;;1.30;;
52692;SDS011;68218;51.012;-1.648;2024-02-26T11:31:04;3.75;;;1.10;;
52692;SDS011;68218;51.012;-1.648;2024-02-26T11:33:32;4.07;;;1.17;;
52692;SDS011;68218;51.012;-1.648;2024-02-26T11:35:58;3.28;;;1.23;;
52692;SDS011;68218;51.012;-1.648;2024-02-26T11:38:24;3.90;;;1.08;;
52692;SDS011;68218;51.012;-1.648;2024-02-26T11:40:52;5.57;;;1.42;;
52692;SDS011;68218;51.012;-1.648;2024-02-26T11:43:18;5.45;;;0.85;;
52692;SDS011;68218;51.012;-1.648;2024-02-26T11:45:49;3.42;;;1.00;;
52692;SDS011;68218;51.012;-1.648;2024-02-26T11:48:15;4.30;;;1.20;;
52692;SDS011;68218;51.012;-1.648;2024-02-26T11:50:48;3.97;;;1.13;;
52692;SDS011;68218;51.012;-1.648;2024-02-26T11:58:40;5.30;;;1.17;;
52692;SDS011;68218;51.012;-1.648;2024-02-26T12:01:26;2.85;;;1.00;;
52692;SDS011;68218;51.012;-1.648;2024-02-26T12:04:11;6.20;;;1.30;;
52692;SDS011;68218;51.012;-1.648;2024-02-26T12:06:45;6.00;;;1.70;;
52692;SDS011;68218;51.012;-1.648;2024-02-26T12:09:12;3.97;;;1.35;;
52692;SDS011;68218;51.012;-1.648;2024-02-26T12:11:38;3.72;;;1.02;;
52692;SDS011;68218;51.012;-1.648;2024-02-26T12:14:05;3.70;;;1.10;;
52692;SDS011;68218;51.012;-1.648;2024-02-26T12:16:36;4.05;;;1.30;;
52692;SDS011;68218;51.012;-1.648;2024-02-26T12:19:06;2.05;;;0.75;;
52692;SDS011;68218;51.012;-1.648;2024-02-26T12:21:36;3.15;;;1.02;;
52692;SDS011;68218;51.012;-1.648;2024-02-26T12:24:12;6.35;;;1.30;;
52692;SDS011;68218;51.012;-1.648;2024-02-26T12:26:39;2.80;;;1.25;;
52692;SDS011;68218;51.012;-1.648;2024-02-26T12:29:05;4.38;;;1.17;;
52692;SDS011;68218;51.012;-1.648;2024-02-26T12:31:31;2.85;;;1.05;;
52692;SDS011;68218;51.012;-1.648;2024-02-26T12:33:58;3.88;;;1.00;;
52692;SDS011;68218;51.012;-1.648;2024-02-26T12:36:24;4.82;;;1.23;;
52692;SDS011;68218;51.012;-1.648;2024-02-26T12:38:50;2.25;;;0.70;;
52692;SDS011;68218;51.012;-1.648;2024-02-26T12:41:16;3.83;;;1.10;;
52692;SDS011;68218;51.012;-1.648;2024-02-26T12:43:41;3.80;;;1.23;;
52692;SDS011;68218;51.012;-1.648;2024-02-26T12:46:07;3.17;;;0.88;;
52692;SDS011;68218;51.012;-1.648;2024-02-26T12:48:32;4.35;;;1.08;;
52692;SDS011;68218;51.012;-1.648;2024-02-26T12:50:58;2.83;;;1.00;;
52692;SDS011;68218;51.012;-1.648;2024-02-26T12:53:24;3.75;;;0.90;;
52692;SDS011;68218;51.012;-1.648;2024-02-26T12:55:51;2.72;;;0.85;;
52692;SDS011;68218;51.012;-1.648;2024-02-26T12:58:17;4.35;;;1.05;;
52692;SDS011;68218;51.012;-1.648;2024-02-26T13:00:44;3.63;;;0.70;;
52692;SDS011;68218;51.012;-1.648;2024-02-26T13:03:11;3.35;;;0.90;;
52692;SDS011;68218;51.012;-1.648;2024-02-26T13:05:37;5.30;;;1.08;;
52692;SDS011;68218;51.012;-1.648;2024-02-26T13:08:03;2.47;;;1.02;;
52692;SDS011;68218;51.012;-1.648;2024-02-26T13:10:29;3.83;;;0.80;;
52692;SDS011;68218;51.012;-1.648;2024-02-26T13:12:54;2.88;;;1.02;;
52692;SDS011;68218;51.012;-1.648;2024-02-26T13:15:20;3.47;;;1.05;;
52692;SDS011;68218;51.012;-1.648;2024-02-26T13:17:47;3.45;;;0.90;;
52692;SDS011;68218;51.012;-1.648;2024-02-26T13:20:24;3.72;;;0.90;;
52692;SDS011;68218;51.012;-1.648;2024-02-26T13:22:59;2.90;;;0.95;;
52692;SDS011;68218;51.012;-1.648;2024-02-26T13:25:26;4.55;;;1.20;;
52692;SDS011;68218;51.012;-1.648;2024-02-26T13:27:51;2.90;;;0.93;;
52692;SDS011;68218;51.012;-1.648;2024-02-26T13:30:16;3.53;;;0.82;;
52692;SDS011;68218;51.012;-1.648;2024-02-26T13:32:44;4.25;;;1.23;;
52692;SDS011;68218;51.012;-1.648;2024-02-26T13:35:10;3.10;;;1.02;;
52692;SDS011;68218;51.012;-1.648;2024-02-26T13:37:37;5.22;;;1.13;;
52692;SDS011;68218;51.012;-1.648;2024-02-26T13:40:04;2.25;;;0.70;;
52692;SDS011;68218;51.012;-1.648;2024-02-26T13:42:30;2.78;;;0.70;;
52692;SDS011;68218;51.012;-1.648;2024-02-26T13:44:56;2.97;;;0.80;;
52692;SDS011;68218;51.012;-1.648;2024-02-26T13:47:21;3.10;;;1.10;;
52692;SDS011;68218;51.012;-1.648;2024-02-26T13:49:46;2.63;;;1.00;;
52692;SDS011;68218;51.012;-1.648;2024-02-26T13:52:12;3.50;;;1.48;;
52692;SDS011;68218;51.012;-1.648;2024-02-26T13:54:37;2.65;;;0.93;;
52692;SDS011;68218;51.012;-1.648;2024-02-26T13:57:04;4.13;;;0.82;;
52692;SDS011;68218;51.012;-1.648;2024-02-26T13:59:29;2.22;;;1.10;;
52692;SDS011;68218;51.012;-1.648;2024-02-26T14:01:55;3.90;;;1.40;;
52692;SDS011;68218;51.012;-1.648;2024-02-26T14:04:20;3.35;;;1.25;;
52692;SDS011;68218;51.012;-1.648;2024-02-26T14:06:46;3.70;;;0.90;;
52692;SDS011;68218;51.012;-1.648;2024-02-26T14:09:11;5.30;;;0.98;;
52692;SDS011;68218;51.012;-1.648;2024-02-26T14:11:43;2.88;;;0.98;;
52692;SDS011;68218;51.012;-1.648;2024-02-26T14:14:09;2.20;;;1.00;;
52692;SDS011;68218;51.012;-1.648;2024-02-26T14:16:34;4.82;;;1.02;;
52692;SDS011;68218;51.012;-1.648;2024-02-26T14:18:59;3.65;;;0.90;;
52692;SDS011;68218;51.012;-1.648;2024-02-26T14:21:25;2.92;;;1.05;;
52692;SDS011;68218;51.012;-1.648;2024-02-26T14:23:52;3.25;;;0.90;;
52692;SDS011;68218;51.012;-1.648;2024-02-26T14:26:17;3.47;;;0.80;;
52692;SDS011;68218;51.012;-1.648;2024-02-26T14:28:42;4.35;;;0.80;;
52692;SDS011;68218;51.012;-1.648;2024-02-26T14:31:08;2.05;;;0.70;;